Time;durP1;ratioP1;P1;durP2;ratioP2;P2;SDS_P1;SDS_P2;PMS_P1;PMS_P2;Temp;Humidity;BMP_temperature;BMP_pressure;BME280_temperature;BME280_humidity;BME280_pressure;Samples;Min_cycle;Max_cycle;Signal;HPM_P1;HPM_P2
2023/08/04 00:01:38;;;;;;;0.55;0.40;;;19.30;71.70;;;;;;2281308;56;20986;-68
2023/08/04 00:04:06;;;;;;;0.80;0.20;;;19.30;71.80;;;;;;2495383;55;20988;-66
2023/08/04 00:06:36;;;;;;;0.30;0.20;;;19.30;71.80;;;;;;2461881;55;21756;-67
2023/08/04 00:09:02;;;;;;;1.40;0.35;;;19.30;71.90;;;;;;2280056;56;21431;-66
2023/08/04 00:11:29;;;;;;;1.35;0.40;;;19.20;71.90;;;;;;2513248;55;20962;-66
2023/08/04 00:13:55;;;;;;;0.85;0.30;;;19.20;71.90;;;;;;2278188;56;21010;-66
2023/08/04 00:16:22;;;;;;;1.85;0.50;;;19.20;72.10;;;;;;2510789;55;20951;-67
2023/08/04 00:18:50;;;;;;;1.33;0.37;;;19.20;72.20;;;;;;2483958;55;21001;-68
2023/08/04 00:21:18;;;;;;;1.77;0.20;;;19.20;72.20;;;;;;2506041;55;20995;-67
2023/08/04 00:23:46;;;;;;;1.92;0.40;;;19.10;72.20;;;;;;2255438;56;20960;-70
2023/08/04 00:26:12;;;;;;;1.20;0.35;;;19.10;72.30;;;;;;2513582;55;20919;-69
2023/08/04 00:28:38;;;;;;;1.37;0.30;;;19.10;72.40;;;;;;2281485;56;20943;-66
2023/08/04 00:31:05;;;;;;;1.37;0.30;;;19.10;72.50;;;;;;2514378;55;20979;-67
2023/08/04 00:33:31;;;;;;;1.02;0.37;;;19.10;72.60;;;;;;2513663;55;20950;-68
2023/08/04 00:35:58;;;;;;;1.23;0.40;;;19.10;72.60;;;;;;2513401;55;20931;-68
2023/08/04 00:38:25;;;;;;;1.52;0.50;;;19.10;72.60;;;;;;2281401;56;20954;-69
2023/08/04 00:40:51;;;;;;;1.25;0.30;;;19.10;72.70;;;;;;2280436;56;20974;-70
2023/08/04 00:43:19;;;;;;;0.55;0.30;;;19.10;72.70;;;;;;2281308;56;21002;-69
2023/08/04 00:45:46;;;;;;;1.05;0.40;;;19.10;72.80;;;;;;2513613;55;21396;-66
2023/08/04 00:48:12;;;;;;;1.50;0.40;;;19.10;72.80;;;;;;2281878;56;21514;-66
2023/08/04 00:50:39;;;;;;;1.77;0.40;;;19.10;72.80;;;;;;2513960;55;21015;-69
2023/08/04 00:53:09;;;;;;;0.82;0.40;;;19.10;72.80;;;;;;2246999;56;21012;-70
2023/08/04 00:55:36;;;;;;;1.65;0.40;;;19.10;72.80;;;;;;2471871;55;20929;-69
2023/08/04 00:58:04;;;;;;;0.88;0.30;;;19.10;72.80;;;;;;2471877;55;21075;-70
2023/08/04 01:00:30;;;;;;;2.35;0.30;;;19.20;72.90;;;;;;2270396;56;21782;-69
2023/08/04 01:02:56;;;;;;;0.60;0.28;;;19.20;72.80;;;;;;2281133;56;21038;-68
2023/08/04 01:05:27;;;;;;;0.95;0.32;;;19.20;72.90;;;;;;2481003;55;20979;-67
2023/08/04 01:07:57;;;;;;;1.80;0.50;;;19.20;72.80;;;;;;2481294;55;20962;-69
2023/08/04 01:11:12;;;;;;;1.92;0.43;;;19.20;72.80;;;;;;2280748;56;21843;-67
2023/08/04 01:13:39;;;;;;;0.75;0.20;;;19.20;71.80;;;;;;2255366;56;21545;-67
2023/08/04 01:16:07;;;;;;;0.70;0.30;;;19.20;73.00;;;;;;2281286;56;21466;-71
2023/08/04 01:18:33;;;;;;;0.73;0.30;;;19.20;73.10;;;;;;2513631;55;20963;-74
2023/08/04 01:21:03;;;;;;;0.68;0.30;;;19.20;73.20;;;;;;2280872;56;20974;-70
2023/08/04 01:23:29;;;;;;;1.35;0.37;;;19.20;73.20;;;;;;2513255;55;21002;-70
2023/08/04 01:25:56;;;;;;;0.85;0.20;;;19.20;73.30;;;;;;2514210;55;20971;-68
2023/08/04 01:28:23;;;;;;;0.52;0.22;;;19.20;73.40;;;;;;2513899;55;21816;-69
2023/08/04 01:30:52;;;;;;;0.80;0.35;;;19.20;73.30;;;;;;2281287;56;21387;-67
2023/08/04 01:33:19;;;;;;;0.85;0.30;;;19.20;74.00;;;;;;2512333;55;20978;-66
2023/08/04 01:35:45;;;;;;;0.43;0.28;;;19.20;73.40;;;;;;2507867;55;21022;-68
2023/08/04 01:38:12;;;;;;;1.15;0.40;;;19.30;73.50;;;;;;2497508;55;20968;-70
2023/08/04 01:40:38;;;;;;;1.58;0.30;;;19.30;73.50;;;;;;2265919;56;20986;-69
2023/08/04 01:43:05;;;;;;;1.55;0.30;;;19.30;73.50;;;;;;2280196;56;21432;-68
2023/08/04 01:45:33;;;;;;;0.98;0.28;;;19.30;73.50;;;;;;2512531;55;21281;-70
2023/08/04 01:48:00;;;;;;;0.50;0.30;;;19.30;73.50;;;;;;2274429;56;20968;-70
2023/08/04 01:50:26;;;;;;;0.55;0.20;;;19.40;73.60;;;;;;2471153;56;20990;-68
2023/08/04 01:52:54;;;;;;;1.35;0.32;;;19.40;73.60;;;;;;2266790;56;21029;-68
2023/08/04 01:55:21;;;;;;;1.65;0.50;;;19.40;73.60;;;;;;2512089;55;21446;-67
2023/08/04 01:57:48;;;;;;;2.67;0.40;;;19.40;73.60;;;;;;2280948;56;21038;-68
2023/08/04 02:00:15;;;;;;;1.25;0.40;;;19.40;73.70;;;;;;2281091;56;21026;-66
2023/08/04 02:02:44;;;;;;;1.50;0.40;;;19.40;73.70;;;;;;2281526;56;20971;-69
2023/08/04 02:05:11;;;;;;;1.77;0.60;;;19.50;73.70;;;;;;2280702;56;21089;-70
2023/08/04 02:07:43;;;;;;;0.88;0.32;;;19.50;73.80;;;;;;2513949;55;20927;-70
2023/08/04 02:10:09;;;;;;;1.75;0.30;;;19.50;73.70;;;;;;2280751;56;20939;-70
2023/08/04 02:12:36;;;;;;;1.17;0.40;;;19.50;73.80;;;;;;2476309;55;20953;-69
2023/08/04 02:15:04;;;;;;;1.15;0.40;;;19.50;73.80;;;;;;2272395;56;21019;-69
2023/08/04 02:17:30;;;;;;;0.77;0.22;;;19.60;73.90;;;;;;2256054;56;21586;-69
2023/08/04 02:19:57;;;;;;;1.48;0.45;;;19.60;73.90;;;;;;2513749;55;20947;-66
2023/08/04 02:22:23;;;;;;;0.57;0.30;;;19.60;73.90;;;;;;2514259;55;21018;-69
2023/08/04 02:24:49;;;;;;;3.83;0.40;;;19.60;73.90;;;;;;2514009;55;20974;-68
2023/08/04 02:27:18;;;;;;;0.77;0.30;;;19.60;73.80;;;;;;2281111;56;20941;-70
2023/08/04 02:29:45;;;;;;;1.15;0.35;;;19.60;73.80;;;;;;2281690;56;20991;-71
2023/08/04 02:32:11;;;;;;;1.55;0.37;;;19.70;73.90;;;;;;2513751;55;20998;-71
2023/08/04 02:34:40;;;;;;;0.60;0.22;;;19.70;73.90;;;;;;2513282;55;21050;-71
2023/08/04 02:37:07;;;;;;;0.52;0.25;;;19.70;73.90;;;;;;2281728;56;20982;-69
2023/08/04 02:39:34;;;;;;;0.52;0.30;;;19.70;73.80;;;;;;2513105;55;20998;-70
2023/08/04 02:42:01;;;;;;;0.98;0.40;;;19.70;73.70;;;;;;2514380;55;20958;-70
2023/08/04 02:44:27;;;;;;;1.40;0.40;;;19.70;73.80;;;;;;2513615;55;20931;-73
2023/08/04 02:46:53;;;;;;;1.58;0.40;;;19.80;73.90;;;;;;2280402;56;22069;-70
2023/08/04 02:49:20;;;;;;;1.37;0.30;;;19.80;74.00;;;;;;2281162;56;20951;-68
2023/08/04 02:51:46;;;;;;;0.88;0.20;;;19.80;74.00;;;;;;2275648;56;21490;-70
2023/08/04 02:54:13;;;;;;;1.45;0.37;;;19.80;74.00;;;;;;2512784;55;21010;-70
2023/08/04 02:56:39;;;;;;;0.88;0.47;;;19.80;73.90;;;;;;2281767;56;20951;-70
2023/08/04 02:59:06;;;;;;;1.85;0.77;;;19.80;73.90;;;;;;2514388;55;21438;-71
2023/08/04 03:01:33;;;;;;;0.93;0.40;;;19.90;74.00;;;;;;2514123;55;21555;-70
2023/08/04 03:04:00;;;;;;;1.25;0.30;;;19.90;74.10;;;;;;2281246;56;21511;-70
2023/08/04 03:06:28;;;;;;;0.57;0.30;;;19.90;74.00;;;;;;2489883;55;21467;-70
2023/08/04 03:08:54;;;;;;;0.52;0.22;;;19.90;74.00;;;;;;2477620;55;20931;-71
2023/08/04 03:11:21;;;;;;;1.15;0.40;;;19.90;74.00;;;;;;2514355;55;20962;-69
2023/08/04 03:13:49;;;;;;;1.55;0.40;;;20.00;74.00;;;;;;2514323;55;21845;-71
2023/08/04 03:16:15;;;;;;;0.60;0.37;;;19.90;73.90;;;;;;2281873;56;21010;-70
2023/08/04 03:18:41;;;;;;;1.75;0.20;;;20.00;74.10;;;;;;2514029;55;21753;-70
2023/08/04 03:21:08;;;;;;;0.70;0.30;;;20.00;74.10;;;;;;2514284;55;21407;-71
2023/08/04 03:23:34;;;;;;;1.17;0.40;;;20.00;74.10;;;;;;2513488;55;20945;-70
2023/08/04 03:26:00;;;;;;;0.52;0.20;;;20.00;74.00;;;;;;2281210;56;21452;-68
2023/08/04 03:28:27;;;;;;;0.47;0.30;;;20.00;74.00;;;;;;2514036;55;21773;-68
2023/08/04 03:30:54;;;;;;;0.60;0.30;;;20.00;74.00;;;;;;2281602;56;20998;-69
2023/08/04 03:33:20;;;;;;;1.67;0.40;;;20.10;74.10;;;;;;2514105;55;21780;-69
2023/08/04 03:35:47;;;;;;;1.23;0.30;;;20.10;74.10;;;;;;2500141;55;20956;-69
2023/08/04 03:38:15;;;;;;;0.60;0.20;;;20.10;74.10;;;;;;2480618;55;21059;-69
2023/08/04 03:40:42;;;;;;;1.02;0.30;;;20.10;74.00;;;;;;2481151;55;21088;-70
2023/08/04 03:43:08;;;;;;;1.40;0.40;;;20.10;74.00;;;;;;2491058;55;20972;-71
2023/08/04 03:45:38;;;;;;;1.58;0.40;;;20.20;74.00;;;;;;2513736;55;20938;-70
2023/08/04 03:48:05;;;;;;;1.20;0.40;;;20.20;74.10;;;;;;2514026;55;21034;-71
2023/08/04 03:50:32;;;;;;;1.40;0.50;;;20.20;74.10;;;;;;2513644;55;20959;-71
2023/08/04 03:52:58;;;;;;;1.48;0.60;;;20.20;74.00;;;;;;2514150;55;20937;-70
2023/08/04 03:55:25;;;;;;;1.08;0.50;;;20.20;74.00;;;;;;2279593;56;21740;-69
2023/08/04 03:57:51;;;;;;;1.40;0.60;;;20.20;74.00;;;;;;2514177;55;20962;-71
2023/08/04 04:00:18;;;;;;;1.20;0.40;;;20.20;74.00;;;;;;2514369;55;21038;-70
2023/08/04 04:02:44;;;;;;;1.05;0.40;;;20.20;74.00;;;;;;2258447;56;1378004;-69
2023/08/04 04:05:11;;;;;;;1.00;0.35;;;20.20;74.00;;;;;;2256181;56;20976;-71
2023/08/04 04:07:39;;;;;;;0.55;0.20;;;20.20;74.00;;;;;;2280663;56;20970;-71
2023/08/04 04:10:06;;;;;;;1.35;0.50;;;20.20;74.00;;;;;;2281459;56;20963;-70
2023/08/04 04:12:35;;;;;;;0.68;0.30;;;20.20;74.60;;;;;;2513340;55;21713;-70
2023/08/04 04:15:05;;;;;;;1.23;0.30;;;20.30;74.00;;;;;;2281292;56;20986;-71
2023/08/04 04:17:32;;;;;;;0.65;0.25;;;20.30;73.80;;;;;;2487388;55;21025;-70
2023/08/04 04:19:59;;;;;;;0.98;0.40;;;20.30;74.00;;;;;;2506178;55;20998;-70
2023/08/04 04:22:30;;;;;;;2.12;0.52;;;20.20;73.90;;;;;;2513029;55;21030;-69
2023/08/04 04:24:56;;;;;;;2.12;0.40;;;20.30;73.80;;;;;;2256989;56;21407;-69
2023/08/04 04:27:23;;;;;;;3.53;0.47;;;20.30;74.00;;;;;;2513191;55;21057;-69
2023/08/04 04:29:54;;;;;;;2.97;0.60;;;20.30;74.00;;;;;;2512245;55;20989;-70
2023/08/04 04:32:21;;;;;;;2.78;0.30;;;20.30;74.00;;;;;;2479540;55;20988;-69
2023/08/04 04:34:50;;;;;;;2.55;0.55;;;20.30;74.00;;;;;;2280856;56;22223;-69
2023/08/04 04:37:17;;;;;;;1.08;0.40;;;20.30;74.00;;;;;;2281377;56;21458;-71
2023/08/04 04:39:44;;;;;;;1.37;0.40;;;20.30;74.00;;;;;;2280669;56;20922;-70
2023/08/04 04:42:10;;;;;;;1.33;0.43;;;20.30;74.10;;;;;;2279732;56;21872;-70
2023/08/04 04:44:36;;;;;;;1.50;0.50;;;20.30;74.10;;;;;;2511512;55;20950;-71
2023/08/04 04:47:04;;;;;;;0.95;0.40;;;20.40;74.20;;;;;;2513359;55;21003;-70
2023/08/04 04:49:31;;;;;;;2.80;0.73;;;20.40;74.20;;;;;;2513677;55;20938;-71
2023/08/04 04:51:57;;;;;;;1.92;0.60;;;20.40;74.30;;;;;;2281138;56;21788;-71
2023/08/04 04:54:23;;;;;;;0.90;0.40;;;20.40;74.30;;;;;;2514274;55;22396;-71
2023/08/04 04:56:50;;;;;;;1.17;0.43;;;20.40;74.30;;;;;;2280967;56;20950;-69
2023/08/04 04:59:17;;;;;;;1.17;0.50;;;20.40;74.30;;;;;;2513963;55;20971;-70
2023/08/04 05:01:44;;;;;;;1.65;0.47;;;20.50;74.30;;;;;;2494081;55;22042;-69
2023/08/04 05:04:13;;;;;;;2.28;0.47;;;20.40;74.20;;;;;;2499613;55;20938;-70
2023/08/04 05:06:39;;;;;;;1.17;0.40;;;20.50;74.30;;;;;;2514112;55;21041;-70
2023/08/04 05:09:07;;;;;;;3.30;0.60;;;20.50;74.30;;;;;;2514593;55;20966;-70
2023/08/04 05:11:33;;;;;;;1.60;0.40;;;20.50;74.20;;;;;;2515215;55;20971;-69
2023/08/04 05:13:59;;;;;;;0.82;0.40;;;20.50;74.30;;;;;;2514221;55;21003;-71
2023/08/04 05:16:26;;;;;;;1.65;0.43;;;20.50;74.20;;;;;;2514049;55;20982;-69
2023/08/04 05:18:53;;;;;;;2.33;0.50;;;20.50;74.10;;;;;;2513574;55;21022;-69
2023/08/04 05:21:19;;;;;;;2.50;0.50;;;20.50;74.10;;;;;;2514192;55;21503;-68
2023/08/04 05:23:46;;;;;;;1.30;0.50;;;20.50;74.10;;;;;;2513971;55;21110;-67
2023/08/04 05:26:13;;;;;;;0.70;0.37;;;20.50;74.10;;;;;;2513787;55;20953;-70
2023/08/04 05:28:39;;;;;;;2.00;0.50;;;20.60;74.20;;;;;;2485960;55;20968;-69
2023/08/04 05:31:08;;;;;;;1.05;0.40;;;20.60;74.30;;;;;;2505209;55;20954;-69
2023/08/04 05:33:34;;;;;;;2.35;0.50;;;20.60;74.30;;;;;;2249665;57;21878;-70
2023/08/04 05:36:00;;;;;;;2.10;0.50;;;20.60;74.30;;;;;;2442475;55;20978;-70
2023/08/04 05:38:28;;;;;;;0.65;0.30;;;20.60;74.30;;;;;;2470840;55;21295;-71
2023/08/04 05:40:54;;;;;;;1.42;0.50;;;20.60;74.40;;;;;;2471793;55;20985;-71
2023/08/04 05:43:23;;;;;;;2.72;0.50;;;20.70;74.60;;;;;;2247039;56;21957;-68
2023/08/04 05:45:53;;;;;;;1.23;0.40;;;20.70;74.60;;;;;;2438400;55;21035;-67
2023/08/04 05:48:20;;;;;;;2.12;0.57;;;20.70;74.60;;;;;;2247130;56;21070;-67
2023/08/04 05:50:47;;;;;;;1.58;0.60;;;20.70;74.60;;;;;;2472180;56;20941;-68
2023/08/04 05:53:13;;;;;;;1.62;0.43;;;20.80;74.70;;;;;;2472366;55;20937;-68
2023/08/04 05:55:39;;;;;;;0.62;0.25;;;20.80;74.70;;;;;;2471706;55;20998;-67
2023/08/04 05:58:06;;;;;;;0.65;0.32;;;20.80;74.70;;;;;;2267573;56;20951;-67
2023/08/04 06:00:35;;;;;;;2.65;0.60;;;20.80;74.70;;;;;;2281406;56;20963;-68
2023/08/04 06:03:02;;;;;;;0.55;0.30;;;20.90;74.80;;;;;;2513472;55;20974;-68
2023/08/04 06:05:29;;;;;;;1.95;0.52;;;20.90;74.70;;;;;;2513567;55;21074;-68
2023/08/04 06:07:55;;;;;;;2.05;0.55;;;20.90;74.70;;;;;;2513860;55;21010;-69
2023/08/04 06:10:25;;;;;;;4.65;0.75;;;20.90;74.60;;;;;;2281072;56;21073;-68
2023/08/04 06:12:53;;;;;;;1.92;0.50;;;21.00;74.40;;;;;;2281188;56;21006;-67
2023/08/04 06:15:20;;;;;;;1.30;0.50;;;21.00;74.50;;;;;;2513276;55;20930;-68
2023/08/04 06:17:47;;;;;;;1.83;0.47;;;21.00;74.50;;;;;;2514170;55;21029;-69
2023/08/04 06:20:13;;;;;;;1.83;0.60;;;21.00;74.50;;;;;;2280390;56;21025;-67
2023/08/04 06:22:41;;;;;;;1.35;0.55;;;21.00;74.50;;;;;;2505849;55;20964;-68
2023/08/04 06:25:08;;;;;;;1.73;0.60;;;21.10;74.50;;;;;;2460609;55;21014;-68
2023/08/04 06:27:35;;;;;;;2.03;0.68;;;21.10;74.50;;;;;;2280882;56;20963;-68
2023/08/04 06:30:01;;;;;;;1.75;0.50;;;21.10;74.50;;;;;;2514154;55;21516;-68
2023/08/04 06:32:28;;;;;;;1.83;0.40;;;21.20;74.60;;;;;;2281300;56;21586;-68
2023/08/04 06:34:55;;;;;;;2.78;0.60;;;21.20;74.50;;;;;;2510825;55;20954;-68
2023/08/04 06:37:21;;;;;;;2.40;0.60;;;21.20;74.50;;;;;;2511593;55;20975;-69
2023/08/04 06:39:49;;;;;;;1.92;0.50;;;21.30;74.50;;;;;;2280747;56;20970;-69
2023/08/04 06:42:16;;;;;;;1.55;0.50;;;21.30;74.50;;;;;;2281253;56;20998;-69
2023/08/04 06:44:43;;;;;;;1.25;0.50;;;21.30;74.40;;;;;;2514465;55;21123;-66
2023/08/04 06:47:13;;;;;;;1.92;0.50;;;21.30;74.30;;;;;;2514404;55;20973;-67
2023/08/04 06:49:40;;;;;;;4.43;0.60;;;21.30;74.30;;;;;;2513877;55;20923;-69
2023/08/04 06:52:07;;;;;;;1.65;0.50;;;21.30;74.60;;;;;;2476065;55;20951;-69
2023/08/04 06:54:36;;;;;;;1.10;0.50;;;21.30;74.40;;;;;;2279467;56;20963;-68
2023/08/04 06:57:03;;;;;;;1.62;0.40;;;21.40;74.50;;;;;;2281243;56;22051;-67
2023/08/04 06:59:29;;;;;;;1.85;0.75;;;21.40;75.30;;;;;;2513850;55;20938;-68
2023/08/04 07:01:55;;;;;;;1.90;0.55;;;21.40;74.60;;;;;;2513785;55;21519;-69
2023/08/04 07:04:22;;;;;;;3.05;0.70;;;21.40;74.60;;;;;;2261537;56;21711;-68
2023/08/04 07:06:52;;;;;;;1.10;0.40;;;21.50;74.70;;;;;;2506135;55;21046;-69
2023/08/04 07:09:21;;;;;;;2.00;0.50;;;21.50;74.70;;;;;;2280921;56;21051;-69
2023/08/04 07:11:48;;;;;;;1.65;0.65;;;21.50;74.40;;;;;;2513253;55;21538;-67
2023/08/04 07:14:14;;;;;;;2.25;0.70;;;21.60;74.70;;;;;;2281697;55;20958;-67
2023/08/04 07:16:43;;;;;;;1.52;0.45;;;21.60;74.60;;;;;;2511760;55;21402;-68
2023/08/04 07:19:10;;;;;;;1.70;0.50;;;21.60;74.60;;;;;;2513664;55;20998;-67
2023/08/04 07:21:37;;;;;;;2.62;0.70;;;21.60;74.70;;;;;;2514376;55;21516;-67
2023/08/04 07:24:04;;;;;;;1.98;0.60;;;21.60;74.70;;;;;;2281108;56;20970;-68
2023/08/04 07:26:32;;;;;;;3.40;0.80;;;21.70;74.80;;;;;;2283811;55;21034;-69
2023/08/04 07:28:58;;;;;;;2.47;0.80;;;21.70;74.80;;;;;;2512648;55;20970;-68
2023/08/04 07:31:24;;;;;;;2.45;0.55;;;21.70;74.70;;;;;;2274407;56;20956;-68
2023/08/04 07:33:51;;;;;;;1.58;0.60;;;21.70;74.70;;;;;;2478736;55;20956;-68
2023/08/04 07:36:17;;;;;;;1.23;0.40;;;21.80;74.80;;;;;;2259587;56;21010;-68
2023/08/04 07:38:44;;;;;;;1.08;0.40;;;21.80;74.80;;;;;;2514093;55;21812;-68
2023/08/04 07:41:18;;;;;;;2.22;0.60;;;21.80;74.80;;;;;;2267867;56;21138;-68
2023/08/04 07:43:44;;;;;;;2.25;0.68;;;21.80;74.30;;;;;;2491677;55;20960;-68
2023/08/04 07:46:27;;;;;;;1.42;0.50;;;21.80;74.90;;;;;;2481121;55;21021;-69
2023/08/04 07:49:32;;;;;;;2.42;0.57;;;21.90;74.40;;;;;;2272183;56;21014;-68
2023/08/04 07:52:17;;;;;;;1.52;0.55;;;21.90;73.70;;;;;;2254110;57;21505;-69
2023/08/04 07:54:44;;;;;;;2.22;0.60;;;22.00;73.90;;;;;;2493467;55;20999;-69
2023/08/04 07:57:13;;;;;;;1.80;0.60;;;22.00;74.90;;;;;;2249655;56;20957;-68
2023/08/04 07:59:39;;;;;;;2.08;0.60;;;22.00;74.80;;;;;;2472797;56;21065;-68
2023/08/04 08:02:07;;;;;;;2.97;0.70;;;22.10;74.90;;;;;;2473174;56;20945;-67
2023/08/04 08:04:42;;;;;;;1.50;0.55;;;22.10;74.90;;;;;;2246478;56;21017;-68
2023/08/04 08:07:13;;;;;;;1.65;0.50;;;22.10;74.10;;;;;;2472819;56;20958;-67
2023/08/04 08:09:40;;;;;;;1.33;0.40;;;22.20;74.70;;;;;;2223100;55;20977;-69
2023/08/04 08:12:07;;;;;;;1.55;0.50;;;22.20;75.60;;;;;;2492173;55;20915;-69
2023/08/04 08:14:34;;;;;;;1.30;0.40;;;22.20;75.00;;;;;;2503086;55;20931;-68
2023/08/04 08:17:00;;;;;;;1.35;0.45;;;22.20;75.00;;;;;;2272796;56;20949;-69
2023/08/04 08:19:27;;;;;;;1.50;0.50;;;22.30;75.00;;;;;;2477859;55;21475;-68
2023/08/04 08:22:11;;;;;;;1.23;0.47;;;22.30;74.90;;;;;;2466744;55;21008;-68
2023/08/04 08:24:39;;;;;;;1.58;0.60;;;22.30;73.70;;;;;;2246872;56;20982;-70
2023/08/04 08:27:05;;;;;;;1.12;0.32;;;22.40;74.70;;;;;;2472954;56;20963;-69
2023/08/04 08:29:32;;;;;;;2.62;0.50;;;22.40;74.70;;;;;;2241082;56;21502;-69
2023/08/04 08:31:58;;;;;;;2.30;0.45;;;22.40;74.60;;;;;;2472326;56;21001;-69
2023/08/04 08:34:24;;;;;;;1.02;0.40;;;22.40;74.50;;;;;;2246950;56;21040;-69
2023/08/04 08:36:52;;;;;;;1.67;0.50;;;22.50;74.50;;;;;;2472368;56;21021;-68
2023/08/04 08:39:23;;;;;;;1.08;0.32;;;22.50;74.40;;;;;;2246684;56;21076;-68
2023/08/04 08:41:53;;;;;;;0.95;0.40;;;22.50;74.00;;;;;;2237537;56;21049;-68
2023/08/04 08:44:20;;;;;;;1.73;0.47;;;22.50;74.30;;;;;;2219010;56;20981;-70
2023/08/04 08:46:46;;;;;;;2.60;0.68;;;22.50;74.30;;;;;;2245909;56;21037;-69
2023/08/04 08:49:12;;;;;;;1.05;0.40;;;22.60;74.50;;;;;;2254643;56;21922;-67
2023/08/04 08:51:41;;;;;;;1.35;0.45;;;22.60;74.50;;;;;;2498771;55;20928;-69
2023/08/04 08:54:08;;;;;;;1.75;0.45;;;22.60;74.30;;;;;;2503540;55;21857;-69
2023/08/04 08:56:34;;;;;;;1.35;0.47;;;22.60;74.60;;;;;;2473109;56;21037;-70
2023/08/04 08:59:01;;;;;;;1.45;0.50;;;22.70;74.90;;;;;;2247227;56;20953;-72
2023/08/04 09:01:28;;;;;;;1.02;0.43;;;22.70;74.80;;;;;;2246963;56;20961;-70
2023/08/04 09:04:00;;;;;;;1.52;0.50;;;22.80;74.90;;;;;;2246965;56;21394;-69
2023/08/04 09:06:27;;;;;;;1.27;0.40;;;22.90;74.50;;;;;;2472941;56;21006;-69
2023/08/04 09:08:54;;;;;;;1.27;0.40;;;22.90;74.70;;;;;;2247389;56;20942;-69
2023/08/04 09:11:21;;;;;;;1.45;0.28;;;22.90;74.70;;;;;;2472886;56;20969;-68
2023/08/04 09:13:49;;;;;;;1.52;0.40;;;23.00;74.70;;;;;;2247336;56;20954;-71
2023/08/04 09:16:19;;;;;;;2.15;0.50;;;23.00;74.50;;;;;;2239465;55;21571;-68
2023/08/04 09:18:45;;;;;;;1.45;0.47;;;23.10;74.60;;;;;;2265154;57;20987;-70
2023/08/04 09:21:12;;;;;;;1.60;0.50;;;23.10;74.30;;;;;;2502331;55;21823;-70
2023/08/04 09:23:49;;;;;;;1.67;0.50;;;23.20;74.10;;;;;;2499502;55;20947;-68
2023/08/04 09:26:16;;;;;;;1.08;0.30;;;23.20;73.30;;;;;;2503613;55;21800;-70
2023/08/04 09:28:42;;;;;;;1.75;0.47;;;23.20;73.70;;;;;;2504086;55;20990;-70
2023/08/04 09:31:10;;;;;;;0.82;0.20;;;23.20;73.60;;;;;;2258384;56;20968;-70
2023/08/04 09:33:38;;;;;;;0.52;0.20;;;23.20;73.40;;;;;;2485621;55;21462;-70
2023/08/04 09:36:12;;;;;;;1.60;0.40;;;23.30;73.60;;;;;;2503776;55;21483;-70
2023/08/04 09:38:41;;;;;;;2.05;0.60;;;23.30;73.60;;;;;;2272492;56;20954;-71
2023/08/04 09:41:14;;;;;;;0.60;0.30;;;23.20;73.50;;;;;;2503115;55;21066;-74
2023/08/04 09:43:48;;;;;;;0.60;0.30;;;23.30;73.30;;;;;;2503203;55;21442;-70
2023/08/04 09:46:14;;;;;;;0.50;0.20;;;23.30;73.30;;;;;;2272062;56;20939;-69
2023/08/04 09:48:42;;;;;;;0.85;0.40;;;23.30;73.90;;;;;;2472592;55;20937;-70
2023/08/04 09:51:18;;;;;;;1.30;0.50;;;23.30;73.60;;;;;;2496849;55;21002;-69
2023/08/04 09:53:49;;;;;;;1.02;0.40;;;23.40;73.10;;;;;;2503185;55;20926;-70
2023/08/04 09:56:18;;;;;;;1.37;0.50;;;23.40;73.60;;;;;;2500384;55;21117;-69
2023/08/04 09:58:45;;;;;;;1.35;0.37;;;23.40;74.00;;;;;;2270307;56;20967;-70
2023/08/04 10:01:12;;;;;;;2.47;0.40;;;23.40;74.20;;;;;;2271988;56;20982;-72
2023/08/04 10:03:40;;;;;;;0.68;0.40;;;23.50;74.60;;;;;;2503468;55;20999;-69
2023/08/04 10:06:07;;;;;;;1.33;0.40;;;23.50;74.50;;;;;;2503615;55;20955;-71
2023/08/04 10:08:36;;;;;;;1.70;0.50;;;23.60;74.80;;;;;;2272611;56;20966;-70
2023/08/04 10:11:03;;;;;;;1.08;0.30;;;23.60;74.90;;;;;;2503715;55;21475;-70
2023/08/04 10:13:31;;;;;;;1.30;0.30;;;23.70;75.20;;;;;;2242487;57;20990;-71
2023/08/04 10:15:58;;;;;;;0.73;0.30;;;23.80;75.10;;;;;;2503591;55;20935;-70
2023/08/04 10:18:55;;;;;;;1.48;0.30;;;23.80;75.10;;;;;;2503721;55;21011;-68
2023/08/04 10:22:02;;;;;;;0.32;0.20;;;23.90;74.20;;;;;;2272311;56;21363;-66
2023/08/04 10:24:28;;;;;;;1.23;0.50;;;24.00;72.70;;;;;;2272646;56;20950;-68
2023/08/04 10:26:54;;;;;;;1.33;0.43;;;24.10;74.80;;;;;;2272003;56;20959;-70
2023/08/04 10:29:29;;;;;;;0.95;0.50;;;24.20;74.60;;;;;;2271643;56;21487;-69
2023/08/04 10:31:57;;;;;;;0.98;0.32;;;24.20;74.30;;;;;;2503524;55;21080;-71
2023/08/04 10:34:36;;;;;;;1.23;0.40;;;24.30;74.30;;;;;;2272392;56;21010;-68
2023/08/04 10:37:21;;;;;;;0.90;0.35;;;24.40;73.60;;;;;;2463375;55;21517;-67
2023/08/04 10:40:02;;;;;;;0.47;0.20;;;24.40;71.90;;;;;;2503421;55;20930;-69
2023/08/04 10:42:30;;;;;;;0.40;0.20;;;24.50;72.40;;;;;;2272510;56;20994;-68
2023/08/04 10:45:06;;;;;;;1.00;0.28;;;24.50;73.40;;;;;;2496815;55;21016;-67
2023/08/04 10:48:38;;;;;;;0.52;0.30;;;24.60;72.70;;;;;;2474309;55;21039;-67
2023/08/04 10:51:05;;;;;;;1.05;0.30;;;24.60;71.60;;;;;;2503812;55;21058;-70
2023/08/04 10:53:31;;;;;;;0.68;0.30;;;24.60;72.90;;;;;;2473254;56;21472;-70
2023/08/04 10:55:58;;;;;;;0.68;0.30;;;24.60;72.20;;;;;;2247828;56;21939;-67
2023/08/04 10:58:26;;;;;;;1.02;0.32;;;24.50;71.10;;;;;;2472863;56;21481;-66
2023/08/04 11:00:53;;;;;;;1.05;0.22;;;24.40;70.40;;;;;;2247386;56;22045;-67
2023/08/04 11:03:21;;;;;;;3.50;0.40;;;24.30;70.00;;;;;;2472927;56;20966;-67
2023/08/04 11:05:51;;;;;;;0.57;0.30;;;24.20;69.40;;;;;;2473074;56;21001;-69
2023/08/04 11:08:19;;;;;;;1.10;0.30;;;24.10;69.10;;;;;;2472958;56;21081;-68
2023/08/04 11:10:46;;;;;;;0.70;0.20;;;23.90;69.30;;;;;;2472414;56;20946;-68
2023/08/04 11:13:15;;;;;;;1.67;0.22;;;23.70;69.30;;;;;;2464472;56;21572;-67
2023/08/04 11:15:43;;;;;;;1.00;0.25;;;23.60;69.40;;;;;;2238355;56;21132;-70
2023/08/04 11:18:11;;;;;;;1.45;0.37;;;23.40;69.70;;;;;;2472756;56;20989;-70
2023/08/04 11:20:44;;;;;;;1.05;0.30;;;23.30;70.10;;;;;;2247619;57;20961;-66
2023/08/04 11:23:11;;;;;;;0.73;0.28;;;23.20;70.00;;;;;;2247867;56;21076;-69
2023/08/04 11:25:48;;;;;;;0.88;0.30;;;23.00;70.20;;;;;;2473130;56;21433;-68
2023/08/04 11:28:14;;;;;;;1.27;0.30;;;22.90;69.70;;;;;;2247611;56;21025;-68
2023/08/04 11:30:41;;;;;;;0.45;0.22;;;22.80;70.20;;;;;;2473287;56;20970;-66
2023/08/04 11:33:10;;;;;;;1.25;0.37;;;22.70;70.10;;;;;;2473205;55;21134;-67
2023/08/04 11:35:38;;;;;;;1.62;0.40;;;22.50;69.90;;;;;;2478397;55;20966;-68
2023/08/04 11:38:05;;;;;;;0.62;0.30;;;22.40;70.20;;;;;;2273116;56;20941;-67
2023/08/04 11:40:31;;;;;;;0.85;0.28;;;22.30;70.60;;;;;;2271299;56;21163;-66
2023/08/04 11:42:59;;;;;;;0.30;0.20;;;22.10;70.70;;;;;;2272469;56;21053;-66
2023/08/04 11:45:31;;;;;;;1.95;0.45;;;22.00;70.90;;;;;;2272574;56;20951;-66
2023/08/04 11:48:00;;;;;;;0.80;0.20;;;21.90;71.20;;;;;;2504511;55;21005;-66
2023/08/04 11:50:26;;;;;;;0.75;0.30;;;21.80;71.40;;;;;;2503313;55;21026;-67
2023/08/04 11:52:53;;;;;;;0.82;0.32;;;21.70;71.80;;;;;;2273220;56;21003;-66
2023/08/04 11:55:20;;;;;;;0.90;0.50;;;21.60;72.20;;;;;;2503481;55;20982;-69
2023/08/04 11:57:53;;;;;;;1.70;0.47;;;21.60;72.50;;;;;;2502858;55;20930;-68
2023/08/04 12:00:34;;;;;;;1.30;0.50;;;21.50;72.60;;;;;;2220322;56;21574;-69
2023/08/04 12:03:02;;;;;;;1.45;0.40;;;21.40;72.60;;;;;;2485454;55;21667;-67
2023/08/04 12:05:37;;;;;;;1.20;0.50;;;21.40;73.20;;;;;;2493641;55;21010;-68
2023/08/04 12:08:12;;;;;;;0.65;0.30;;;21.30;73.30;;;;;;2473753;55;20949;-68
2023/08/04 12:10:39;;;;;;;1.00;0.50;;;21.30;73.40;;;;;;2247504;56;21503;-67
2023/08/04 12:13:06;;;;;;;1.60;0.62;;;21.20;73.70;;;;;;2473231;56;21069;-68
2023/08/04 12:15:53;;;;;;;1.20;0.50;;;21.20;73.90;;;;;;2457431;55;21007;-68
2023/08/04 12:18:24;;;;;;;0.75;0.40;;;21.20;73.70;;;;;;2465069;56;21053;-68
2023/08/04 12:20:51;;;;;;;1.77;0.60;;;21.10;74.30;;;;;;2247709;56;21482;-68
2023/08/04 12:23:17;;;;;;;0.90;0.40;;;21.10;74.30;;;;;;2247407;56;20971;-68
2023/08/04 12:25:44;;;;;;;0.90;0.45;;;21.10;74.30;;;;;;2247289;56;21066;-69
2023/08/04 12:28:11;;;;;;;1.08;0.60;;;21.00;74.40;;;;;;2247613;56;20987;-67
2023/08/04 12:30:38;;;;;;;1.08;0.50;;;21.00;74.60;;;;;;2473299;55;21015;-67
2023/08/04 12:33:04;;;;;;;1.08;0.50;;;21.00;75.00;;;;;;2261947;56;20998;-68
2023/08/04 12:35:30;;;;;;;1.27;0.50;;;21.00;75.40;;;;;;2503591;55;20967;-68
2023/08/04 12:37:57;;;;;;;1.27;0.50;;;21.00;75.60;;;;;;2504104;55;20966;-69
2023/08/04 12:40:24;;;;;;;0.93;0.45;;;21.00;75.60;;;;;;2503976;55;21626;-67
2023/08/04 12:42:50;;;;;;;1.35;0.57;;;21.00;75.60;;;;;;2503262;55;21070;-69
2023/08/04 12:45:17;;;;;;;0.65;0.35;;;21.00;75.60;;;;;;2504045;55;21496;-69
2023/08/04 12:47:43;;;;;;;1.00;0.50;;;21.00;75.80;;;;;;2272650;56;21019;-71
2023/08/04 12:50:09;;;;;;;0.77;0.40;;;21.00;76.00;;;;;;2251873;56;20975;-70
2023/08/04 12:52:37;;;;;;;1.35;0.40;;;21.00;76.20;;;;;;2247593;56;21009;-70
2023/08/04 12:55:04;;;;;;;1.02;0.40;;;21.00;76.30;;;;;;2473098;55;21049;-69